Wetterstation Vettwei-Soller: Standort 50 43' 54" Nord - 6 33' 24" Ost
Wetterdaten: aktuell Montag, 22.07.2019 07:30
Datum Zeit Temp. A. Temp. A. min Temp. A. max Feuchte A. Luftdruck Regen Wind Richtung Richtung Sonnenschein Zeit Regen ET UV Solar Taupunkt Windchill Windben
22.07.2019 07:30 18,2 C 17,3 C 18,2 C 69 % 1024,3 hPa 0,0 l/m 5,9 km/h (2 Bft) S-SW 193 0 min 0 min 0,000 mm 0,0 UV-I 118 W/m 12,4 C 18,2 C 11,3 km/h (2 Bft)
22.07.2019 07:15 17,3 C 16,9 C 17,3 C 72 % 1024,1 hPa 0,0 l/m 5,0 km/h (1 Bft) S-SW 194 15 min 0 min 0,000 mm 0,0 UV-I 134 W/m 12,2 C 17,3 C 11,3 km/h (2 Bft)
22.07.2019 07:00 16,9 C 16,6 C 16,9 C 73 % 1024,1 hPa 0,0 l/m 5,5 km/h (1 Bft) S-SW 208 0 min 0 min 0,026 mm 0,0 UV-I 44 W/m 12,0 C 16,9 C 9,7 km/h (2 Bft)
22.07.2019 06:45 16,6 C 16,3 C 16,6 C 74 % 1023,9 hPa 0,0 l/m 4,7 km/h (1 Bft) SW 215 0 min 0 min 0,000 mm 0,0 UV-I 30 W/m 11,9 C 16,6 C 11,3 km/h (2 Bft)
22.07.2019 06:30 16,4 C 16,2 C 16,4 C 74 % 1024,0 hPa 0,0 l/m 4,3 km/h (1 Bft) S-SW 213 0 min 0 min 0,000 mm 0,0 UV-I 21 W/m 11,8 C 16,4 C 6,4 km/h (2 Bft)
22.07.2019 06:15 16,3 C 16,2 C 16,3 C 75 % 1024,1 hPa 0,0 l/m 4,2 km/h (1 Bft) S-SW 204 0 min 0 min 0,000 mm 0,0 UV-I 14 W/m 11,9 C 16,3 C 8,0 km/h (2 Bft)
22.07.2019 06:00 16,3 C 16,2 C 16,4 C 75 % 1024,1 hPa 0,0 l/m 5,0 km/h (1 Bft) S-SW 203 0 min 0 min 0,025 mm 0,0 UV-I 7 W/m 11,9 C 16,3 C 9,7 km/h (2 Bft)
22.07.2019 05:45 16,4 C 16,4 C 16,6 C 75 % 1024,1 hPa 0,0 l/m 5,2 km/h (1 Bft) S 188 0 min 0 min 0,000 mm 0,0 UV-I 0 W/m 12,0 C 16,4 C 8,0 km/h (2 Bft)
22.07.2019 05:30 16,5 C 16,5 C 16,6 C 75 % 1024,1 hPa 0,0 l/m 5,0 km/h (1 Bft) S-SW 210 0 min 0 min 0,000 mm 0,0 UV-I 0 W/m 12,1 C 16,5 C 12,9 km/h (3 Bft)
22.07.2019 05:15 16,5 C 16,3 C 16,6 C 76 % 1024,0 hPa 0,0 l/m 3,5 km/h (1 Bft) SW 221 0 min 0 min 0,025 mm 0,0 UV-I 0 W/m 12,3 C 16,5 C 8,0 km/h (2 Bft)
22.07.2019 05:00 16,3 C 16,2 C 16,4 C 77 % 1024,0 hPa 0,0 l/m 1,8 km/h (1 Bft) SW 215 0 min 0 min 0,000 mm 0,0 UV-I 0 W/m 12,3 C 16,3 C 4,8 km/h (1 Bft)
22.07.2019 04:45 16,3 C 16,0 C 16,3 C 77 % 1023,9 hPa 0,0 l/m 3,0 km/h (1 Bft) S-SW 197 0 min 0 min 0,000 mm 0,0 UV-I 0 W/m 12,3 C 16,3 C 6,4 km/h (2 Bft)
22.07.2019 04:30 16,0 C 15,7 C 16,1 C 78 % 1023,9 hPa 0,0 l/m 2,6 km/h (1 Bft) S-SW 192 0 min 0 min 0,000 mm 0,0 UV-I 0 W/m 12,2 C 16,0 C 6,4 km/h (2 Bft)
22.07.2019 04:15 15,7 C 14,7 C 15,7 C 80 % 1023,9 hPa 0,0 l/m 3,5 km/h (1 Bft) SW 223 0 min 0 min 0,000 mm 0,0 UV-I 0 W/m 12,3 C 15,7 C 6,4 km/h (2 Bft)
22.07.2019 04:00 14,7 C 14,7 C 14,8 C 83 % 1024,0 hPa 0,0 l/m 1,4 km/h (1 Bft) S-SW 196 0 min 0 min 0,026 mm 0,0 UV-I 0 W/m 11,8 C 14,7 C 3,2 km/h (1 Bft)
22.07.2019 03:45 14,8 C 14,8 C 15,4 C 83 % 1024,0 hPa 0,0 l/m 2,1 km/h (1 Bft) SW 217 0 min 0 min 0,000 mm 0,0 UV-I 0 W/m 11,9 C 14,8 C 4,8 km/h (1 Bft)
22.07.2019 03:30 15,0 C 14,9 C 15,3 C 83 % 1024,1 hPa 0,0 l/m 3,5 km/h (1 Bft) SW 215 0 min 0 min 0,000 mm 0,0 UV-I 0 W/m 12,1 C 15,0 C 6,4 km/h (2 Bft)
22.07.2019 03:15 15,3 C 15,3 C 15,9 C 82 % 1024,1 hPa 0,0 l/m 4,4 km/h (1 Bft) S-SW 200 0 min 0 min 0,000 mm 0,0 UV-I 0 W/m 12,2 C 15,3 C 6,4 km/h (2 Bft)
22.07.2019 03:00 15,9 C 15,8 C 16,1 C 80 % 1023,9 hPa 0,0 l/m 4,4 km/h (1 Bft) S-SW 210 0 min 0 min 0,025 mm 0,0 UV-I 0 W/m 12,5 C 15,9 C 8,0 km/h (2 Bft)
22.07.2019 02:45 15,9 C 15,8 C 16,1 C 80 % 1024,0 hPa 0,0 l/m 3,7 km/h (1 Bft) S-SW 203 0 min 0 min 0,000 mm 0,0 UV-I 0 W/m 12,5 C 15,9 C 6,4 km/h (2 Bft)
22.07.2019 02:30 15,8 C 15,7 C 16,2 C 81 % 1024,0 hPa 0,0 l/m 4,4 km/h (1 Bft) SW 220 0 min 0 min 0,000 mm 0,0 UV-I 0 W/m 12,5 C 15,8 C 6,4 km/h (2 Bft)
22.07.2019 02:15 16,2 C 16,1 C 16,4 C 79 % 1024,1 hPa 0,0 l/m 4,0 km/h (1 Bft) SW 223 0 min 0 min 0,000 mm 0,0 UV-I 0 W/m 12,6 C 16,2 C 6,4 km/h (2 Bft)
22.07.2019 02:00 16,1 C 15,5 C 16,2 C 80 % 1024,1 hPa 0,0 l/m 3,7 km/h (1 Bft) SW 214 0 min 0 min 0,026 mm 0,0 UV-I 0 W/m 12,6 C 16,1 C 6,4 km/h (2 Bft)
22.07.2019 01:45 15,5 C 15,4 C 16,3 C 81 % 1024,1 hPa 0,0 l/m 1,9 km/h (1 Bft) W 267 0 min 0 min 0,000 mm 0,0 UV-I 0 W/m 12,3 C 15,5 C 4,8 km/h (1 Bft)
22.07.2019 01:30 16,3 C 16,3 C 16,6 C 78 % 1024,1 hPa 0,0 l/m 0,2 km/h (0 Bft) W 268 0 min 0 min 0,000 mm 0,0 UV-I 0 W/m 12,5 C 16,3 C 3,2 km/h (1 Bft)
22.07.2019 01:15 16,6 C 16,6 C 16,9 C 77 % 1024,2 hPa 0,0 l/m 0,5 km/h (0 Bft) W 268 0 min 0 min 0,000 mm 0,0 UV-I 0 W/m 12,5 C 16,6 C 3,2 km/h (1 Bft)
22.07.2019 01:00 16,8 C 16,8 C 17,2 C 76 % 1024,2 hPa 0,0 l/m 1,3 km/h (1 Bft) W 268 0 min 0 min 0,025 mm 0,0 UV-I 0 W/m 12,5 C 16,8 C 3,2 km/h (1 Bft)
22.07.2019 00:45 17,1 C 17,1 C 17,2 C 75 % 1024,3 hPa 0,0 l/m 1,4 km/h (1 Bft) W 268 0 min 0 min 0,000 mm 0,0 UV-I 0 W/m 12,6 C 17,1 C 3,2 km/h (1 Bft)
22.07.2019 00:30 17,2 C 17,1 C 17,2 C 75 % 1024,3 hPa 0,0 l/m 1,5 km/h (1 Bft) W 268 0 min 0 min 0,000 mm 0,0 UV-I 0 W/m 12,7 C 17,2 C 4,8 km/h (1 Bft)
22.07.2019 00:15 17,2 C 17,2 C 17,5 C 75 % 1024,4 hPa 0,0 l/m 2,4 km/h (1 Bft) W 268 0 min 0 min 0,000 mm 0,0 UV-I 0 W/m 12,7 C 17,2 C 6,4 km/h (2 Bft)
22.07.2019 00:00 17,4 C 17,3 C 17,4 C 74 % 1024,1 hPa 0,0 l/m 1,9 km/h (1 Bft) W 261 0 min 0 min 0,000 mm 0,0 UV-I 0 W/m 12,7 C 17,4 C 4,8 km/h (1 Bft)
21.07.2019 23:45 17,3 C 17,3 C 17,6 C 74 % 1024,1 hPa 0,0 l/m 1,7 km/h (1 Bft) W 261 0 min 0 min 0,000 mm 0,0 UV-I 0 W/m 12,6 C 17,3 C 4,8 km/h (1 Bft)
21.07.2019 23:30 17,6 C 17,6 C 17,8 C 73 % 1024,0 hPa 0,0 l/m 2,1 km/h (1 Bft) S-SW 209 0 min 0 min 0,000 mm 0,0 UV-I 0 W/m 12,7 C 17,6 C 4,8 km/h (1 Bft)
21.07.2019 23:15 17,8 C 17,7 C 17,8 C 72 % 1023,9 hPa 0,0 l/m 1,6 km/h (1 Bft) W-SW 239 0 min 0 min 0,026 mm 0,0 UV-I 0 W/m 12,7 C 17,8 C 4,8 km/h (1 Bft)
21.07.2019 23:00 17,8 C 17,7 C 17,9 C 73 % 1023,9 hPa 0,0 l/m 2,0 km/h (1 Bft) W-SW 254 0 min 0 min 0,000 mm 0,0 UV-I 0 W/m 12,9 C 17,8 C 4,8 km/h (1 Bft)
21.07.2019 22:45 17,9 C 17,9 C 18,2 C 73 % 1023,7 hPa 0,0 l/m 0,8 km/h (0 Bft) W 270 0 min 0 min 0,000 mm 0,0 UV-I 0 W/m 13,0 C 17,9 C 3,2 km/h (1 Bft)
21.07.2019 22:30 18,2 C 18,2 C 18,6 C 72 % 1023,7 hPa 0,0 l/m 1,0 km/h (0 Bft) W 270 0 min 0 min 0,000 mm 0,0 UV-I 0 W/m 13,1 C 18,2 C 3,2 km/h (1 Bft)
21.07.2019 22:15 18,5 C 18,5 C 19,0 C 70 % 1023,7 hPa 0,0 l/m 0,8 km/h (0 Bft) W 270 0 min 0 min 0,025 mm 0,0 UV-I 0 W/m 12,9 C 18,5 C 3,2 km/h (1 Bft)
21.07.2019 22:00 19,0 C 19,0 C 19,9 C 69 % 1023,7 hPa 0,0 l/m 0,8 km/h (0 Bft) W 270 0 min 0 min 0,000 mm 0,0 UV-I 0 W/m 13,2 C 19,0 C 3,2 km/h (1 Bft)
21.07.2019 21:45 19,9 C 19,9 C 21,2 C 66 % 1023,6 hPa 0,0 l/m 0,9 km/h (0 Bft) W 270 0 min 0 min 0,000 mm 0,0 UV-I 0 W/m 13,4 C 19,9 C 3,2 km/h (1 Bft)
21.07.2019 21:30 21,2 C 21,2 C 21,8 C 60 % 1023,5 hPa 0,0 l/m 2,4 km/h (1 Bft) W 270 0 min 0 min 0,000 mm 0,0 UV-I 0 W/m 13,1 C 21,2 C 4,8 km/h (1 Bft)
21.07.2019 21:15 21,8 C 21,8 C 22,4 C 58 % 1023,2 hPa 0,0 l/m 1,2 km/h (1 Bft) NW 304 0 min 0 min 0,051 mm 0,0 UV-I 9 W/m 13,2 C 21,8 C 6,4 km/h (2 Bft)
21.07.2019 21:00 22,4 C 22,4 C 22,9 C 56 % 1023,3 hPa 0,0 l/m 2,3 km/h (1 Bft) NW 326 0 min 0 min 0,000 mm 0,0 UV-I 14 W/m 13,2 C 22,4 C 9,7 km/h (2 Bft)
21.07.2019 20:45 22,9 C 22,9 C 23,3 C 54 % 1023,1 hPa 0,0 l/m 3,3 km/h (1 Bft) SW 233 0 min 0 min 0,000 mm 0,0 UV-I 35 W/m 13,1 C 22,9 C 8,0 km/h (2 Bft)
21.07.2019 20:30 23,3 C 23,2 C 23,5 C 53 % 1023,0 hPa 0,0 l/m 4,6 km/h (1 Bft) NW 314 0 min 0 min 0,000 mm 0,0 UV-I 35 W/m 13,2 C 23,3 C 12,9 km/h (3 Bft)
21.07.2019 20:15 23,5 C 23,5 C 23,8 C 53 % 1022,8 hPa 0,0 l/m 5,2 km/h (1 Bft) NW 312 0 min 0 min 0,127 mm 0,0 UV-I 32 W/m 13,4 C 23,5 C 11,3 km/h (2 Bft)
21.07.2019 20:00 23,8 C 23,7 C 24,1 C 52 % 1022,9 hPa 0,0 l/m 6,4 km/h (2 Bft) W-NW 298 0 min 0 min 0,000 mm 0,0 UV-I 51 W/m 13,3 C 23,8 C 16,1 km/h (3 Bft)
21.07.2019 19:45 24,1 C 24,1 C 24,3 C 51 % 1022,8 hPa 0,0 l/m 6,0 km/h (2 Bft) W-NW 299 0 min 0 min 0,000 mm 0,0 UV-I 97 W/m 13,3 C 24,1 C 14,5 km/h (3 Bft)
21.07.2019 19:30 24,1 C 23,8 C 24,1 C 51 % 1022,7 hPa 0,0 l/m 5,3 km/h (1 Bft) N-NW 338 15 min 0 min 0,000 mm 0,5 UV-I 165 W/m 13,3 C 24,1 C 14,5 km/h (3 Bft)
21.07.2019 19:15 23,8 C 23,8 C 24,2 C 53 % 1022,6 hPa 0,0 l/m 6,0 km/h (2 Bft) NW 307 0 min 0 min 0,178 mm 0,5 UV-I 128 W/m 13,6 C 23,8 C 16,1 km/h (3 Bft)
21.07.2019 19:00 24,1 C 24,0 C 24,3 C 52 % 1022,6 hPa 0,0 l/m 5,8 km/h (2 Bft) NW 317 0 min 0 min 0,000 mm 0,7 UV-I 155 W/m 13,6 C 24,1 C 16,1 km/h (3 Bft)
21.07.2019 18:45 24,2 C 24,1 C 24,4 C 52 % 1022,7 hPa 0,0 l/m 5,8 km/h (2 Bft) SW 223 0 min 0 min 0,000 mm 0,8 UV-I 192 W/m 13,7 C 24,2 C 16,1 km/h (3 Bft)
21.07.2019 18:30 24,4 C 24,4 C 24,7 C 50 % 1022,6 hPa 0,0 l/m 5,2 km/h (1 Bft) N 355 0 min 0 min 0,000 mm 1,0 UV-I 181 W/m 13,3 C 24,4 C 16,1 km/h (3 Bft)
21.07.2019 18:15 24,7 C 24,5 C 25,1 C 49 % 1022,7 hPa 0,0 l/m 5,8 km/h (2 Bft) N-NW 336 0 min 0 min 0,279 mm 1,3 UV-I 255 W/m 13,3 C 24,7 C 17,7 km/h (3 Bft)
21.07.2019 18:00 25,1 C 24,9 C 25,4 C 48 % 1022,7 hPa 0,0 l/m 5,7 km/h (1 Bft) SW 225 0 min 0 min 0,000 mm 1,3 UV-I 178 W/m 13,3 C 25,1 C 19,3 km/h (3 Bft)
21.07.2019 17:45 24,9 C 24,7 C 25,2 C 50 % 1022,7 hPa 0,0 l/m 7,6 km/h (2 Bft) N-NW 339 15 min 0 min 0,000 mm 2,1 UV-I 415 W/m 13,7 C 24,9 C 19,3 km/h (3 Bft)
21.07.2019 17:30 24,9 C 24,7 C 24,9 C 48 % 1022,8 hPa 0,0 l/m 6,6 km/h (2 Bft) NW 305 15 min 0 min 0,000 mm 2,1 UV-I 394 W/m 13,1 C 24,9 C 17,7 km/h (3 Bft)
21.07.2019 17:15 24,8 C 24,6 C 25,2 C 48 % 1022,7 hPa 0,0 l/m 7,7 km/h (2 Bft) N-NW 336 0 min 0 min 0,381 mm 1,7 UV-I 155 W/m 13,0 C 24,8 C 20,9 km/h (4 Bft)
21.07.2019 17:00 25,2 C 24,7 C 25,3 C 47 % 1022,7 hPa 0,0 l/m 7,4 km/h (2 Bft) N-NW 336 0 min 0 min 0,000 mm 2,2 UV-I 197 W/m 13,1 C 25,2 C 19,3 km/h (3 Bft)
21.07.2019 16:45 25,0 C 24,5 C 25,3 C 49 % 1022,6 hPa 0,0 l/m 6,3 km/h (2 Bft) N-NW 336 15 min 0 min 0,000 mm 3,0 UV-I 654 W/m 13,5 C 25,0 C 17,7 km/h (3 Bft)
21.07.2019 16:30 25,2 C 24,7 C 25,4 C 49 % 1022,6 hPa 0,0 l/m 6,1 km/h (2 Bft) N-NW 348 15 min 0 min 0,000 mm 3,6 UV-I 617 W/m 13,7 C 25,2 C 19,3 km/h (3 Bft)
21.07.2019 16:15 25,2 C 24,9 C 25,4 C 48 % 1022,6 hPa 0,0 l/m 8,6 km/h (2 Bft) N-NW 344 15 min 0 min 0,406 mm 4,1 UV-I 694 W/m 13,4 C 25,2 C 19,3 km/h (3 Bft)
21.07.2019 16:00 25,3 C 24,6 C 25,4 C 46 % 1022,6 hPa 0,0 l/m 9,5 km/h (2 Bft) N-NW 336 15 min 0 min 0,000 mm 4,2 UV-I 677 W/m 12,8 C 25,3 C 19,3 km/h (3 Bft)
21.07.2019 15:45 24,7 C 24,3 C 24,7 C 49 % 1022,6 hPa 0,0 l/m 8,1 km/h (2 Bft) W-SW 244 15 min 0 min 0,000 mm 4,8 UV-I 731 W/m 13,3 C 24,7 C 22,5 km/h (4 Bft)
21.07.2019 15:30 24,6 C 24,1 C 24,6 C 50 % 1022,7 hPa 0,0 l/m 7,8 km/h (2 Bft) W-SW 257 15 min 0 min 0,000 mm 3,9 UV-I 543 W/m 13,5 C 24,6 C 19,3 km/h (3 Bft)
21.07.2019 15:15 24,3 C 23,9 C 24,4 C 52 % 1022,7 hPa 0,0 l/m 10,3 km/h (2 Bft) NW 304 0 min 0 min 0,432 mm 3,4 UV-I 287 W/m 13,8 C 24,3 C 22,5 km/h (4 Bft)
21.07.2019 15:00 23,9 C 23,8 C 24,4 C 54 % 1022,8 hPa 0,0 l/m 8,0 km/h (2 Bft) NW 319 0 min 0 min 0,000 mm 3,6 UV-I 334 W/m 14,0 C 23,9 C 24,1 km/h (4 Bft)
21.07.2019 14:45 24,2 C 24,0 C 24,6 C 54 % 1022,8 hPa 0,0 l/m 8,0 km/h (2 Bft) NW 315 15 min 0 min 0,000 mm 4,3 UV-I 483 W/m 14,3 C 24,2 C 17,7 km/h (3 Bft)
21.07.2019 14:30 24,4 C 24,3 C 24,7 C 49 % 1022,8 hPa 0,0 l/m 7,4 km/h (2 Bft) W 261 15 min 0 min 0,000 mm 5,0 UV-I 650 W/m 13,0 C 24,4 C 19,3 km/h (3 Bft)
21.07.2019 14:15 24,5 C 23,8 C 24,5 C 48 % 1022,6 hPa 0,0 l/m 8,1 km/h (2 Bft) W-SW 246 15 min 0 min 0,432 mm 5,3 UV-I 708 W/m 12,8 C 24,5 C 22,5 km/h (4 Bft)
21.07.2019 14:00 24,0 C 23,4 C 24,0 C 51 % 1022,6 hPa 0,0 l/m 7,5 km/h (2 Bft) N-NW 345 15 min 0 min 0,000 mm 5,8 UV-I 682 W/m 13,2 C 24,0 C 19,3 km/h (3 Bft)
21.07.2019 13:45 23,9 C 23,7 C 24,2 C 54 % 1022,6 hPa 0,0 l/m 7,0 km/h (2 Bft) SW 235 15 min 0 min 0,000 mm 5,3 UV-I 608 W/m 14,0 C 23,9 C 19,3 km/h (3 Bft)
21.07.2019 13:30 23,8 C 23,5 C 23,9 C 55 % 1022,7 hPa 0,0 l/m 7,9 km/h (2 Bft) N-NO 19 15 min 0 min 0,000 mm 6,0 UV-I 710 W/m 14,2 C 23,8 C 19,3 km/h (3 Bft)
21.07.2019 13:15 23,6 C 23,6 C 24,1 C 55 % 1022,6 hPa 0,0 l/m 7,1 km/h (2 Bft) N-NW 345 15 min 0 min 0,457 mm 5,8 UV-I 476 W/m 14,0 C 23,6 C 19,3 km/h (3 Bft)
21.07.2019 13:00 24,1 C 23,6 C 24,2 C 57 % 1022,4 hPa 0,0 l/m 7,4 km/h (2 Bft) W 271 15 min 0 min 0,000 mm 5,0 UV-I 749 W/m 15,0 C 24,1 C 22,5 km/h (4 Bft)
21.07.2019 12:45 23,6 C 23,1 C 23,9 C 56 % 1022,2 hPa 0,0 l/m 7,2 km/h (2 Bft) NW 323 15 min 0 min 0,000 mm 6,4 UV-I 846 W/m 14,3 C 23,6 C 19,3 km/h (3 Bft)
21.07.2019 12:30 23,7 C 22,2 C 23,7 C 58 % 1022,1 hPa 0,0 l/m 6,8 km/h (2 Bft) NW 318 15 min 0 min 0,000 mm 6,1 UV-I 861 W/m 14,9 C 23,7 C 19,3 km/h (3 Bft)
21.07.2019 12:15 22,2 C 22,2 C 22,6 C 64 % 1021,9 hPa 0,0 l/m 8,7 km/h (2 Bft) N-NO 32 0 min 0 min 0,330 mm 5,9 UV-I 276 W/m 15,1 C 22,2 C 19,3 km/h (3 Bft)
21.07.2019 12:00 22,6 C 21,7 C 22,6 C 65 % 1021,9 hPa 0,0 l/m 7,3 km/h (2 Bft) N 360 15 min 0 min 0,000 mm 3,7 UV-I 877 W/m 15,7 C 22,6 C 19,3 km/h (3 Bft)
21.07.2019 11:45 22,1 C 21,3 C 22,1 C 67 % 1021,9 hPa 0,0 l/m 7,2 km/h (2 Bft) N-NW 342 15 min 0 min 0,000 mm 3,4 UV-I 807 W/m 15,7 C 22,1 C 17,7 km/h (3 Bft)
21.07.2019 11:30 21,4 C 21,2 C 22,0 C 67 % 1021,9 hPa 0,0 l/m 5,4 km/h (1 Bft) NW 317 0 min 0 min 0,000 mm 2,8 UV-I 265 W/m 15,0 C 21,4 C 16,1 km/h (3 Bft)
21.07.2019 11:15 22,0 C 21,1 C 22,0 C 67 % 1021,8 hPa 0,0 l/m 4,2 km/h (1 Bft) W-NW 287 0 min 0 min 0,254 mm 2,6 UV-I 241 W/m 15,6 C 22,0 C 14,5 km/h (3 Bft)
21.07.2019 11:00 21,4 C 20,8 C 21,6 C 68 % 1021,6 hPa 0,0 l/m 4,4 km/h (1 Bft) W-SW 239 15 min 0 min 0,000 mm 4,2 UV-I 722 W/m 15,2 C 21,4 C 11,3 km/h (2 Bft)
21.07.2019 10:45 21,2 C 19,9 C 21,2 C 69 % 1021,5 hPa 0,0 l/m 4,4 km/h (1 Bft) W-NW 293 15 min 0 min 0,000 mm 3,8 UV-I 661 W/m 15,3 C 21,2 C 14,5 km/h (3 Bft)
21.07.2019 10:30 20,0 C 19,1 C 20,1 C 71 % 1021,3 hPa 0,0 l/m 3,9 km/h (1 Bft) S-SO 165 15 min 0 min 0,001 mm 2,8 UV-I 527 W/m 14,6 C 20,0 C 9,7 km/h (2 Bft)
21.07.2019 10:15 19,1 C 19,1 C 19,4 C 73 % 1021,1 hPa 0,0 l/m 3,1 km/h (1 Bft) W 271 0 min 0 min 0,152 mm 2,0 UV-I 134 W/m 14,1 C 19,1 C 9,7 km/h (2 Bft)
21.07.2019 10:00 19,4 C 19,1 C 19,4 C 73 % 1020,9 hPa 0,0 l/m 4,5 km/h (1 Bft) NW 321 0 min 0 min 0,000 mm 1,8 UV-I 169 W/m 14,4 C 19,4 C 12,9 km/h (3 Bft)
21.07.2019 09:45 19,1 C 18,9 C 19,2 C 73 % 1020,8 hPa 0,0 l/m 4,8 km/h (1 Bft) N-NW 346 0 min 0 min 0,000 mm 1,6 UV-I 151 W/m 14,1 C 19,1 C 12,9 km/h (3 Bft)
21.07.2019 09:30 19,1 C 19,0 C 19,6 C 73 % 1020,6 hPa 0,0 l/m 4,0 km/h (1 Bft) N-NW 337 15 min 0 min 0,000 mm 1,8 UV-I 397 W/m 14,1 C 19,1 C 14,5 km/h (3 Bft)
21.07.2019 09:15 19,0 C 18,9 C 19,2 C 73 % 1020,6 hPa 0,0 l/m 5,8 km/h (2 Bft) NW 311 15 min 0 min 0,178 mm 1,6 UV-I 311 W/m 14,0 C 19,0 C 16,1 km/h (3 Bft)
21.07.2019 09:00 19,2 C 18,6 C 19,2 C 73 % 1020,4 hPa 0,0 l/m 6,9 km/h (2 Bft) W 279 15 min 0 min 0,000 mm 1,3 UV-I 329 W/m 14,2 C 19,2 C 19,3 km/h (3 Bft)
21.07.2019 08:45 18,6 C 18,3 C 18,6 C 74 % 1020,1 hPa 0,0 l/m 7,8 km/h (2 Bft) W-SW 254 15 min 0 min 0,000 mm 1,1 UV-I 315 W/m 13,9 C 18,6 C 20,9 km/h (4 Bft)
21.07.2019 08:30 18,3 C 17,9 C 18,3 C 74 % 1020,1 hPa 0,0 l/m 7,8 km/h (2 Bft) W-NW 299 15 min 0 min 0,000 mm 0,9 UV-I 278 W/m 13,6 C 18,3 C 17,7 km/h (3 Bft)
21.07.2019 08:15 17,9 C 17,8 C 18,0 C 75 % 1019,9 hPa 0,0 l/m 5,4 km/h (1 Bft) S-SW 197 15 min 0 min 0,101 mm 0,7 UV-I 274 W/m 13,4 C 17,9 C 12,9 km/h (3 Bft)
21.07.2019 08:00 17,8 C 17,6 C 17,8 C 76 % 1020,0 hPa 0,0 l/m 4,6 km/h (1 Bft) W-SW 253 15 min 0 min 0,000 mm 0,5 UV-I 237 W/m 13,5 C 17,8 C 17,7 km/h (3 Bft)
_ Min-Zeit 04:00 04:00 04:00 16:00 08:15 - 01:30 - - - - - - - 06:30 04:00 21:45
Minimum _ 14,7 C 14,7 C 14,8 C 46 % 1019,9 hPa - 0,2 km/h (0 Bft) - - - - - - - 11,8 C 14,7 C 3,2 km/h (1 Bft)
_ Max-Zeit 16:00 16:15 16:00 03:30 00:15 08:00 15:15 - - 08:00 08:00 13:15 12:45 12:00 12:00 16:00 15:00
Maximum _ 25,4 C 24,9 C 25,4 C 83 % 1024,4 hPa 0,0 l/m 10,3 km/h
NW (2 Bft)
- - 15 min 0 min 0,457 mm 6,4 UV-I 877 W/m 15,7 C 25,3 C 24,1 km/h
NW (4 Bft)
Durchschnitt _ 20,1 C 19,8 C 20,3 C 66 % 1022,7 hPa #0,0 l/m 4,8 km/h (1 Bft) S-SW - #15 min. #0 min. #0,178 mm 0,0 UV-I 53 W/m 13,3 C 20,1 C 12,6 km/h (3 Bft)